Time;durP1;ratioP1;P1;durP2;ratioP2;P2;SDS_P1;SDS_P2;PMS_P1;PMS_P2;Temp;Humidity;BMP_temperature;BMP_pressure;BME280_temperature;BME280_humidity;BME280_pressure;Samples;Min_cycle;Max_cycle;Signal;HPM_P1;HPM_P2
2022/06/10 00:01:13;;;;;;;5.90;2.20;;;;;;;;;;6200628;23;20052;-65
2022/06/10 00:03:40;;;;;;;6.15;2.50;;;;;;;;;;6200055;23;20460;-65
2022/06/10 00:06:07;;;;;;;6.28;2.40;;;;;;;;;;6189464;23;20024;-66
2022/06/10 00:08:36;;;;;;;5.72;2.10;;;;;;;;;;6200695;23;20020;-65
2022/06/10 00:11:03;;;;;;;8.73;2.40;;;;;;;;;;6183359;23;20024;-65
2022/06/10 00:13:31;;;;;;;8.03;2.27;;;;;;;;;;6193464;23;20035;-66
2022/06/10 00:15:58;;;;;;;5.37;2.20;;;;;;;;;;6190659;23;20478;-66
2022/06/10 00:18:26;;;;;;;7.05;2.42;;;;;;;;;;6197930;23;20246;-65
2022/06/10 00:20:52;;;;;;;6.17;2.47;;;;;;;;;;6200154;23;20024;-67
2022/06/10 00:23:18;;;;;;;7.25;2.65;;;;;;;;;;6187262;23;20245;-67
2022/06/10 00:25:45;;;;;;;7.97;2.53;;;;;;;;;;6191225;23;20108;-65
2022/06/10 00:28:12;;;;;;;6.90;2.58;;;;;;;;;;6193363;23;20024;-67
2022/06/10 00:30:38;;;;;;;8.75;2.40;;;;;;;;;;6201628;23;20021;-67
2022/06/10 00:33:05;;;;;;;8.30;2.33;;;;;;;;;;6201786;23;20183;-66
2022/06/10 00:35:32;;;;;;;8.98;2.55;;;;;;;;;;6196162;23;20059;-66
2022/06/10 00:37:59;;;;;;;8.15;2.30;;;;;;;;;;6195558;23;20704;-67
2022/06/10 00:40:30;;;;;;;6.10;2.47;;;;;;;;;;6184523;22;20107;-66
2022/06/10 00:42:57;;;;;;;4.50;2.20;;;;;;;;;;6200500;23;20025;-66
2022/06/10 00:45:42;;;;;;;11.98;2.67;;;;;;;;;;6193111;23;20354;-66
2022/06/10 00:48:10;;;;;;;7.15;2.80;;;;;;;;;;6198433;23;20246;-66
2022/06/10 00:50:37;;;;;;;8.73;2.30;;;;;;;;;;6198408;23;20025;-66
2022/06/10 00:53:04;;;;;;;7.28;2.58;;;;;;;;;;6196030;23;20458;-65
2022/06/10 00:55:31;;;;;;;7.80;2.40;;;;;;;;;;6200606;23;20021;-65
2022/06/10 00:58:12;;;;;;;7.07;2.67;;;;;;;;;;6168260;23;20020;-66
2022/06/10 01:00:38;;;;;;;7.07;2.33;;;;;;;;;;6201686;23;20139;-67
2022/06/10 01:03:05;;;;;;;3.50;2.20;;;;;;;;;;6185888;23;20037;-67
2022/06/10 01:05:31;;;;;;;8.75;2.70;;;;;;;;;;6194533;23;20044;-66
2022/06/10 01:08:00;;;;;;;9.13;2.50;;;;;;;;;;6190099;23;20095;-66
2022/06/10 01:10:27;;;;;;;7.47;2.53;;;;;;;;;;6198923;23;20529;-66
2022/06/10 01:13:12;;;;;;;6.85;2.30;;;;;;;;;;6199647;23;20044;-66
2022/06/10 01:15:43;;;;;;;3.78;2.10;;;;;;;;;;6189078;23;20024;-66
2022/06/10 01:18:10;;;;;;;5.97;2.67;;;;;;;;;;6190320;23;20350;-66
2022/06/10 01:20:43;;;;;;;6.03;2.38;;;;;;;;;;6190720;23;20036;-65
2022/06/10 01:23:22;;;;;;;8.27;2.17;;;;;;;;;;6199850;23;20073;-66
2022/06/10 01:25:54;;;;;;;5.53;2.45;;;;;;;;;;6190051;23;20510;-66
2022/06/10 01:28:20;;;;;;;6.93;2.50;;;;;;;;;;6200019;23;20108;-66
2022/06/10 01:31:06;;;;;;;4.40;2.22;;;;;;;;;;6184597;23;20533;-67
2022/06/10 01:33:51;;;;;;;6.85;2.40;;;;;;;;;;6172136;23;20395;-67
2022/06/10 01:36:36;;;;;;;9.20;2.50;;;;;;;;;;6193290;23;20654;-67
2022/06/10 01:39:08;;;;;;;5.93;2.58;;;;;;;;;;6199928;23;20024;-66
2022/06/10 01:41:44;;;;;;;7.78;2.40;;;;;;;;;;6199426;23;20031;-66
2022/06/10 01:44:19;;;;;;;7.43;2.50;;;;;;;;;;6179980;22;20028;-66
2022/06/10 01:46:52;;;;;;;4.38;2.38;;;;;;;;;;6198504;23;20025;-66
2022/06/10 01:49:24;;;;;;;7.55;2.35;;;;;;;;;;6187921;23;20043;-67
2022/06/10 01:52:09;;;;;;;7.85;2.75;;;;;;;;;;6200251;23;20461;-66
2022/06/10 01:54:41;;;;;;;7.32;2.55;;;;;;;;;;6189809;23;20333;-66
2022/06/10 01:57:10;;;;;;;5.28;2.70;;;;;;;;;;6194709;23;20112;-66
2022/06/10 01:59:41;;;;;;;5.80;2.38;;;;;;;;;;6185379;23;20038;-66
2022/06/10 02:02:13;;;;;;;4.30;2.40;;;;;;;;;;6197777;23;20031;-67
2022/06/10 02:04:45;;;;;;;6.15;2.47;;;;;;;;;;6200513;23;20115;-66
2022/06/10 02:07:15;;;;;;;6.15;2.60;;;;;;;;;;6189120;23;20028;-66
2022/06/10 02:09:47;;;;;;;7.55;2.55;;;;;;;;;;6199727;23;20031;-66
2022/06/10 02:12:18;;;;;;;11.02;2.80;;;;;;;;;;6181414;23;20063;-65
2022/06/10 02:14:48;;;;;;;10.52;2.83;;;;;;;;;;6197818;23;20636;-66
2022/06/10 02:17:15;;;;;;;7.72;2.33;;;;;;;;;;6193309;23;20020;-65
2022/06/10 02:19:44;;;;;;;4.78;2.70;;;;;;;;;;6201133;23;20031;-65
2022/06/10 02:22:13;;;;;;;5.50;2.78;;;;;;;;;;6201321;23;20829;-65
2022/06/10 02:24:39;;;;;;;;;;;;;;;;;;6184639;23;20104;-65
2022/06/10 02:27:17;;;;;;;10.10;2.40;;;;;;;;;;6169117;23;19930;-66
2022/06/10 02:29:59;;;;;;;8.30;2.95;;;;;;;;;;6190825;23;20492;-65
2022/06/10 02:32:26;;;;;;;8.20;3.08;;;;;;;;;;6200503;23;20560;-66
2022/06/10 02:34:54;;;;;;;6.28;2.63;;;;;;;;;;6191088;23;20502;-66
2022/06/10 02:37:39;;;;;;;7.00;2.90;;;;;;;;;;6200707;23;20115;-66
2022/06/10 02:40:25;;;;;;;6.00;2.85;;;;;;;;;;6183049;22;20455;-66
2022/06/10 02:43:11;;;;;;;10.65;3.63;;;;;;;;;;6184101;23;20028;-66
2022/06/10 02:46:00;;;;;;;7.28;2.38;;;;;;;;;;6196574;23;20031;-66
2022/06/10 02:48:32;;;;;;;7.68;2.85;;;;;;;;;;6198775;23;20418;-67
2022/06/10 02:51:00;;;;;;;7.07;2.88;;;;;;;;;;6201390;23;20107;-66
2022/06/10 02:53:26;;;;;;;6.32;2.65;;;;;;;;;;6184269;23;20103;-67
2022/06/10 02:55:52;;;;;;;5.55;2.72;;;;;;;;;;6195481;23;20352;-67
2022/06/10 03:01:20;;;;;;;9.98;4.18;;;;;;;;;;6201778;23;20494;-66
2022/06/10 03:03:56;;;;;;;10.60;3.45;;;;;;;;;;6190939;23;20082;-66
2022/06/10 03:06:28;;;;;;;9.95;2.90;;;;;;;;;;6196261;23;20024;-65
2022/06/10 03:09:04;;;;;;;11.25;3.00;;;;;;;;;;6184345;23;20411;-66
2022/06/10 03:11:35;;;;;;;9.65;2.67;;;;;;;;;;6173592;23;20024;-67
2022/06/10 03:14:11;;;;;;;11.32;3.17;;;;;;;;;;6201392;23;20099;-66
2022/06/10 03:16:43;;;;;;;9.07;2.90;;;;;;;;;;6163596;23;20492;-65
2022/06/10 03:19:26;;;;;;;7.78;2.65;;;;;;;;;;6173816;23;20067;-66
2022/06/10 03:21:59;;;;;;;11.63;3.40;;;;;;;;;;6183305;23;20060;-66
2022/06/10 03:24:41;;;;;;;9.00;2.92;;;;;;;;;;6194680;23;20024;-66
2022/06/10 03:27:12;;;;;;;8.07;2.75;;;;;;;;;;6190108;23;20561;-66
2022/06/10 03:29:47;;;;;;;13.70;3.55;;;;;;;;;;6199753;23;20111;-66
2022/06/10 03:32:29;;;;;;;10.63;2.83;;;;;;;;;;6190884;23;20048;-66
2022/06/10 03:35:02;;;;;;;9.13;3.08;;;;;;;;;;6194913;23;20214;-67
2022/06/10 03:37:29;;;;;;;8.85;3.80;;;;;;;;;;6194753;23;20027;-66
2022/06/10 03:39:56;;;;;;;8.23;3.20;;;;;;;;;;6193016;23;20414;-66
2022/06/10 03:42:23;;;;;;;11.10;3.50;;;;;;;;;;6200403;23;20021;-66
2022/06/10 03:44:52;;;;;;;9.32;2.47;;;;;;;;;;6190235;23;20111;-66
2022/06/10 03:47:20;;;;;;;7.35;2.35;;;;;;;;;;6199357;23;20115;-66
2022/06/10 03:49:47;;;;;;;;;;;;;;;;;;6184186;23;20029;-66
2022/06/10 03:52:17;;;;;;;13.32;3.50;;;;;;;;;;6195722;23;20003;-66
2022/06/10 03:54:43;;;;;;;11.00;2.67;;;;;;;;;;6197335;23;20051;-65
2022/06/10 03:57:09;;;;;;;11.32;3.15;;;;;;;;;;6196987;23;20116;-66
2022/06/10 03:59:36;;;;;;;7.18;2.70;;;;;;;;;;6201517;23;20047;-66
2022/06/10 04:02:02;;;;;;;9.80;3.25;;;;;;;;;;6188730;23;20540;-66
2022/06/10 04:04:29;;;;;;;12.15;2.85;;;;;;;;;;6190290;23;20107;-66
2022/06/10 04:06:55;;;;;;;10.60;3.20;;;;;;;;;;6188935;23;20510;-66
2022/06/10 04:09:24;;;;;;;10.48;3.10;;;;;;;;;;6199365;23;20124;-66
2022/06/10 04:11:51;;;;;;;10.40;3.35;;;;;;;;;;6198838;22;20054;-66
2022/06/10 04:14:17;;;;;;;12.52;3.83;;;;;;;;;;6194729;23;20112;-67
2022/06/10 04:16:44;;;;;;;12.60;2.70;;;;;;;;;;6199387;23;20024;-67
2022/06/10 04:19:11;;;;;;;15.75;3.00;;;;;;;;;;6194159;22;20021;-66
2022/06/10 04:21:38;;;;;;;8.23;2.50;;;;;;;;;;6201498;23;20127;-66
2022/06/10 04:24:04;;;;;;;13.10;3.15;;;;;;;;;;6192175;23;20027;-66
2022/06/10 04:26:30;;;;;;;8.30;2.78;;;;;;;;;;6197628;23;20094;-67
2022/06/10 04:28:57;;;;;;;11.75;2.97;;;;;;;;;;6191553;23;20337;-66
2022/06/10 04:31:23;;;;;;;10.43;3.35;;;;;;;;;;6188726;23;20056;-66
2022/06/10 04:33:50;;;;;;;11.10;3.15;;;;;;;;;;6199798;23;20099;-66
2022/06/10 04:36:17;;;;;;;8.32;2.83;;;;;;;;;;6163256;23;20020;-66
2022/06/10 04:38:44;;;;;;;12.00;3.15;;;;;;;;;;6200844;23;20399;-66
2022/06/10 04:41:11;;;;;;;16.85;3.50;;;;;;;;;;6183226;23;20021;-66
2022/06/10 04:43:37;;;;;;;8.32;3.40;;;;;;;;;;6193641;23;20099;-66
2022/06/10 04:46:05;;;;;;;13.65;3.60;;;;;;;;;;6199442;23;20452;-66
2022/06/10 04:48:31;;;;;;;11.67;3.87;;;;;;;;;;6187817;23;20029;-66
2022/06/10 04:50:58;;;;;;;14.75;3.63;;;;;;;;;;6200559;23;20059;-66
2022/06/10 04:53:25;;;;;;;10.73;3.80;;;;;;;;;;6188634;23;20111;-66
2022/06/10 04:55:51;;;;;;;13.15;4.00;;;;;;;;;;6194883;23;20024;-66
2022/06/10 04:58:18;;;;;;;9.73;3.55;;;;;;;;;;6184706;23;20052;-67
2022/06/10 05:00:47;;;;;;;11.20;3.67;;;;;;;;;;6200211;23;20024;-66
2022/06/10 05:03:15;;;;;;;14.38;3.38;;;;;;;;;;6199940;23;20029;-65
2022/06/10 05:05:42;;;;;;;10.40;3.35;;;;;;;;;;6190825;23;20103;-66
2022/06/10 05:08:10;;;;;;;13.27;3.38;;;;;;;;;;6198820;23;20390;-66
2022/06/10 05:10:37;;;;;;;11.88;3.75;;;;;;;;;;6180768;22;20357;-65
2022/06/10 05:13:04;;;;;;;7.93;3.40;;;;;;;;;;6198216;23;20099;-66
2022/06/10 05:15:30;;;;;;;11.65;3.60;;;;;;;;;;6189325;22;20020;-65
2022/06/10 05:17:58;;;;;;;9.57;3.50;;;;;;;;;;6199449;23;20105;-65
2022/06/10 05:20:30;;;;;;;12.18;3.55;;;;;;;;;;6199837;23;20024;-65
2022/06/10 05:22:56;;;;;;;12.55;3.58;;;;;;;;;;6185075;23;20598;-65
2022/06/10 05:25:22;;;;;;;10.38;4.40;;;;;;;;;;6196598;23;20492;-67
2022/06/10 05:27:49;;;;;;;14.75;3.88;;;;;;;;;;6194823;22;20120;-67
2022/06/10 05:30:18;;;;;;;6.88;3.28;;;;;;;;;;6200418;23;20111;-66
2022/06/10 05:32:44;;;;;;;10.82;3.80;;;;;;;;;;6195236;22;20024;-66
2022/06/10 05:35:10;;;;;;;11.20;3.25;;;;;;;;;;6199622;23;20342;-66
2022/06/10 05:37:37;;;;;;;8.15;3.40;;;;;;;;;;6195256;23;20104;-66
2022/06/10 05:40:16;;;;;;;8.48;3.10;;;;;;;;;;6186622;23;20326;-66
2022/06/10 05:42:45;;;;;;;12.15;3.17;;;;;;;;;;6199252;23;20031;-66
2022/06/10 05:45:14;;;;;;;10.30;3.20;;;;;;;;;;6189247;22;20107;-66
2022/06/10 05:47:40;;;;;;;11.80;3.30;;;;;;;;;;6199949;23;20031;-66
2022/06/10 05:50:09;;;;;;;11.93;3.10;;;;;;;;;;6185801;23;20095;-65
2022/06/10 05:52:35;;;;;;;7.38;2.85;;;;;;;;;;6189983;23;20027;-66
2022/06/10 05:55:03;;;;;;;9.38;2.85;;;;;;;;;;6201117;23;20424;-66
2022/06/10 05:57:31;;;;;;;;;;;;;;;;;;6191907;23;20024;-66
2022/06/10 05:59:57;;;;;;;7.32;3.13;;;;;;;;;;6203172;23;19958;-66
2022/06/10 06:02:24;;;;;;;16.48;4.13;;;;;;;;;;6193317;23;20112;-66
2022/06/10 06:04:51;;;;;;;9.52;2.83;;;;;;;;;;6196537;23;20348;-66
2022/06/10 06:07:20;;;;;;;9.32;2.97;;;;;;;;;;6185337;23;20031;-66
2022/06/10 06:09:47;;;;;;;11.93;3.53;;;;;;;;;;6200832;23;20592;-66
2022/06/10 06:12:13;;;;;;;9.82;3.05;;;;;;;;;;6201422;23;20035;-66
2022/06/10 06:14:40;;;;;;;13.30;3.28;;;;;;;;;;6191338;23;20021;-65
2022/06/10 06:17:06;;;;;;;13.27;3.15;;;;;;;;;;6201741;23;20035;-66
2022/06/10 06:19:33;;;;;;;12.93;3.03;;;;;;;;;;6185599;22;20032;-66
2022/06/10 06:21:59;;;;;;;12.60;3.30;;;;;;;;;;6195258;23;20056;-67
2022/06/10 06:24:30;;;;;;;10.77;3.40;;;;;;;;;;6197627;23;20059;-66
2022/06/10 06:26:57;;;;;;;10.25;2.83;;;;;;;;;;6196689;23;20025;-66
2022/06/10 06:29:24;;;;;;;11.02;3.30;;;;;;;;;;6200490;23;20024;-66
2022/06/10 06:31:52;;;;;;;14.02;3.70;;;;;;;;;;6190886;22;20021;-66
2022/06/10 06:34:20;;;;;;;18.00;3.97;;;;;;;;;;6191908;23;20345;-68
2022/06/10 06:36:47;;;;;;;10.35;3.38;;;;;;;;;;6189457;23;20150;-67
2022/06/10 06:39:15;;;;;;;11.88;3.58;;;;;;;;;;6200863;23;20024;-66
2022/06/10 06:41:47;;;;;;;8.43;3.20;;;;;;;;;;6198729;22;20029;-66
2022/06/10 06:44:13;;;;;;;14.63;4.18;;;;;;;;;;6196298;23;20111;-67
2022/06/10 06:46:41;;;;;;;15.15;4.40;;;;;;;;;;6197054;23;20095;-67
2022/06/10 06:49:09;;;;;;;11.52;3.85;;;;;;;;;;6183947;23;20051;-66
2022/06/10 06:51:36;;;;;;;9.10;3.58;;;;;;;;;;6201291;23;20103;-66
2022/06/10 06:54:02;;;;;;;11.48;3.88;;;;;;;;;;6191534;23;20777;-67
2022/06/10 06:56:29;;;;;;;10.70;3.30;;;;;;;;;;6202419;23;20778;-67
2022/06/10 06:58:56;;;;;;;12.43;3.92;;;;;;;;;;6199553;23;20160;-66
2022/06/10 07:01:22;;;;;;;11.13;3.58;;;;;;;;;;6191374;23;20021;-67
2022/06/10 07:03:49;;;;;;;15.52;3.47;;;;;;;;;;6196015;23;20057;-67
2022/06/10 07:06:15;;;;;;;13.65;3.30;;;;;;;;;;6189781;23;20120;-67
2022/06/10 07:08:42;;;;;;;10.00;3.00;;;;;;;;;;6202675;23;20031;-66
2022/06/10 07:11:08;;;;;;;10.73;3.13;;;;;;;;;;6191591;22;20119;-66
2022/06/10 07:13:36;;;;;;;15.68;3.28;;;;;;;;;;6200115;23;20534;-66
2022/06/10 07:16:02;;;;;;;12.10;3.08;;;;;;;;;;6194492;23;20027;-66
2022/06/10 07:18:30;;;;;;;13.93;3.17;;;;;;;;;;6188239;23;20025;-66
2022/06/10 07:20:57;;;;;;;10.43;2.80;;;;;;;;;;6202311;23;20398;-67
2022/06/10 07:23:23;;;;;;;7.45;3.00;;;;;;;;;;6191018;23;20052;-67
2022/06/10 07:25:50;;;;;;;11.27;2.80;;;;;;;;;;6202862;23;20383;-67
2022/06/10 07:28:16;;;;;;;8.45;2.47;;;;;;;;;;6186416;22;20020;-66
2022/06/10 07:30:43;;;;;;;8.50;2.45;;;;;;;;;;6196491;23;20213;-66
2022/06/10 07:33:10;;;;;;;7.75;2.17;;;;;;;;;;6201805;23;20107;-66
2022/06/10 07:35:38;;;;;;;9.38;2.88;;;;;;;;;;6191711;23;20025;-66
2022/06/10 07:38:09;;;;;;;7.45;2.10;;;;;;;;;;6201261;23;20431;-66
2022/06/10 07:43:40;;;;;;;9.30;2.30;;;;;;;;;;6193887;23;20024;-66
2022/06/10 07:46:08;;;;;;;8.90;2.03;;;;;;;;;;6192049;22;20466;-66
2022/06/10 07:48:34;;;;;;;10.32;2.25;;;;;;;;;;6200069;23;20265;-67
2022/06/10 07:51:01;;;;;;;7.93;2.22;;;;;;;;;;6201580;23;20096;-67
2022/06/10 07:53:29;;;;;;;12.00;2.55;;;;;;;;;;6189981;22;20099;-67
2022/06/10 07:55:56;;;;;;;7.20;1.95;;;;;;;;;;6192664;23;20020;-66
2022/06/10 07:58:24;;;;;;;12.82;2.28;;;;;;;;;;6187514;23;20406;-66
2022/06/10 08:00:51;;;;;;;4.60;2.05;;;;;;;;;;6202038;23;20539;-66
2022/06/10 08:03:17;;;;;;;9.68;2.25;;;;;;;;;;6193238;23;20024;-66
2022/06/10 08:05:44;;;;;;;9.30;2.10;;;;;;;;;;6202375;23;20028;-66
2022/06/10 08:08:15;;;;;;;7.85;1.83;;;;;;;;;;6193769;22;20099;-66
2022/06/10 08:10:41;;;;;;;9.20;1.92;;;;;;;;;;6194721;23;20138;-68
2022/06/10 08:13:08;;;;;;;7.03;1.75;;;;;;;;;;6198852;23;20067;-65
2022/06/10 08:15:35;;;;;;;5.53;1.77;;;;;;;;;;6190808;23;20025;-66
2022/06/10 08:18:02;;;;;;;10.10;1.88;;;;;;;;;;6200992;23;20095;-65
2022/06/10 08:23:15;;;;;;;10.73;1.80;;;;;;;;;;6196860;23;20128;-67
2022/06/10 08:25:42;;;;;;;7.30;1.50;;;;;;;;;;6188467;22;20466;-66
2022/06/10 08:28:08;;;;;;;8.82;1.75;;;;;;;;;;6200160;23;20470;-66
2022/06/10 08:30:35;;;;;;;5.25;1.48;;;;;;;;;;6200466;23;20059;-66
2022/06/10 08:33:05;;;;;;;7.35;1.90;;;;;;;;;;6190164;23;20341;-68
2022/06/10 08:35:33;;;;;;;7.00;1.65;;;;;;;;;;6200089;23;20482;-67
2022/06/10 08:38:00;;;;;;;4.70;1.40;;;;;;;;;;6180521;23;20474;-66
2022/06/10 08:40:35;;;;;;;5.75;1.35;;;;;;;;;;6197348;23;20024;-66
2022/06/10 08:43:04;;;;;;;10.52;2.00;;;;;;;;;;6192647;23;20056;-67
2022/06/10 08:45:35;;;;;;;5.07;1.60;;;;;;;;;;6199737;23;20017;-67
2022/06/10 08:48:09;;;;;;;6.35;2.22;;;;;;;;;;6199037;23;20354;-67
2022/06/10 08:50:36;;;;;;;5.88;1.70;;;;;;;;;;6186805;23;20042;-66
2022/06/10 08:53:26;;;;;;;10.68;2.20;;;;;;;;;;6194200;23;20353;-67
2022/06/10 08:56:01;;;;;;;7.97;1.88;;;;;;;;;;6188538;23;20104;-66
2022/06/10 08:58:31;;;;;;;6.97;2.10;;;;;;;;;;6198823;23;20028;-67
2022/06/10 09:01:00;;;;;;;9.25;2.17;;;;;;;;;;6189870;23;20653;-67
2022/06/10 09:03:39;;;;;;;7.65;1.98;;;;;;;;;;6198277;23;20035;-67
2022/06/10 09:06:08;;;;;;;6.22;1.80;;;;;;;;;;6180829;22;20424;-67
2022/06/10 09:08:40;;;;;;;8.40;2.17;;;;;;;;;;6196420;23;20025;-66
2022/06/10 09:11:13;;;;;;;8.85;1.95;;;;;;;;;;6195997;23;20349;-66
2022/06/10 09:13:42;;;;;;;11.25;1.83;;;;;;;;;;6199145;23;20021;-67
2022/06/10 09:16:14;;;;;;;7.18;1.75;;;;;;;;;;6173640;23;20116;-67
2022/06/10 09:18:49;;;;;;;9.55;2.10;;;;;;;;;;6184152;23;20024;-67
2022/06/10 09:21:19;;;;;;;7.60;1.92;;;;;;;;;;6195123;23;20100;-68
2022/06/10 09:23:47;;;;;;;4.95;1.63;;;;;;;;;;6189684;23;20087;-67
2022/06/10 09:26:24;;;;;;;10.13;1.38;;;;;;;;;;6199081;23;20566;-67
2022/06/10 09:28:51;;;;;;;9.23;1.85;;;;;;;;;;6190284;23;20031;-68
2022/06/10 09:31:22;;;;;;;9.88;1.55;;;;;;;;;;6198787;23;20397;-67
2022/06/10 09:33:57;;;;;;;11.23;2.13;;;;;;;;;;6193108;23;20035;-68
2022/06/10 09:36:31;;;;;;;7.47;1.58;;;;;;;;;;6190073;23;20042;-67
2022/06/10 09:39:07;;;;;;;5.00;1.60;;;;;;;;;;6201534;23;20127;-67
2022/06/10 09:41:48;;;;;;;5.68;1.60;;;;;;;;;;6190739;23;20127;-67
2022/06/10 09:44:17;;;;;;;5.10;1.80;;;;;;;;;;6202828;23;20020;-69
2022/06/10 09:46:58;;;;;;;9.27;1.63;;;;;;;;;;6188585;22;20052;-67
2022/06/10 09:49:43;;;;;;;10.20;1.83;;;;;;;;;;6193005;23;20024;-67
2022/06/10 09:52:15;;;;;;;7.32;1.45;;;;;;;;;;6193313;23;20088;-67
2022/06/10 09:55:01;;;;;;;8.07;1.73;;;;;;;;;;6201138;23;20690;-67
2022/06/10 09:57:46;;;;;;;7.15;1.70;;;;;;;;;;6190858;23;20107;-67
2022/06/10 10:00:20;;;;;;;10.32;2.00;;;;;;;;;;6169419;23;20095;-67
2022/06/10 10:02:59;;;;;;;8.10;1.52;;;;;;;;;;6198235;23;20059;-68
2022/06/10 10:05:41;;;;;;;9.40;1.80;;;;;;;;;;6200261;23;20645;-67
2022/06/10 10:08:23;;;;;;;4.75;1.30;;;;;;;;;;6200997;23;20052;-67
2022/06/10 10:10:52;;;;;;;9.90;2.10;;;;;;;;;;6193039;23;20026;-67
2022/06/10 10:13:35;;;;;;;5.25;1.90;;;;;;;;;;6196181;23;20525;-68
2022/06/10 10:16:20;;;;;;;7.28;2.03;;;;;;;;;;6189685;22;20029;-67
2022/06/10 10:19:05;;;;;;;6.05;1.85;;;;;;;;;;6201950;23;20801;-67
2022/06/10 10:21:41;;;;;;;7.60;1.63;;;;;;;;;;6194197;23;20104;-67
2022/06/10 10:24:14;;;;;;;6.40;1.58;;;;;;;;;;6201752;23;20107;-67
2022/06/10 10:26:41;;;;;;;7.25;1.60;;;;;;;;;;6189830;23;20071;-67
2022/06/10 10:29:11;;;;;;;9.05;1.88;;;;;;;;;;6194092;23;20030;-67
2022/06/10 10:31:54;;;;;;;6.38;1.98;;;;;;;;;;6192811;23;20604;-67
2022/06/10 10:34:24;;;;;;;10.32;1.90;;;;;;;;;;6201332;23;20028;-67
2022/06/10 10:36:52;;;;;;;8.50;2.10;;;;;;;;;;6203180;23;20025;-67
2022/06/10 10:39:18;;;;;;;;;;;;;;;;;;6194489;22;20136;-67
2022/06/10 10:41:47;;;;;;;7.47;2.00;;;;;;;;;;6191760;23;19919;-67
2022/06/10 10:44:21;;;;;;;10.73;2.15;;;;;;;;;;6187716;23;20518;-67
2022/06/10 10:47:00;;;;;;;10.27;2.33;;;;;;;;;;6200957;23;20095;-67
2022/06/10 10:49:28;;;;;;;11.00;2.35;;;;;;;;;;6188446;23;20059;-67
2022/06/10 10:51:55;;;;;;;8.50;2.25;;;;;;;;;;6200892;23;20433;-68
2022/06/10 10:54:33;;;;;;;8.48;2.20;;;;;;;;;;6194432;23;20575;-67
2022/06/10 10:57:01;;;;;;;9.45;2.28;;;;;;;;;;6191178;23;20502;-68
2022/06/10 10:59:35;;;;;;;8.82;2.22;;;;;;;;;;6175591;23;20108;-67
2022/06/10 11:02:22;;;;;;;10.95;2.38;;;;;;;;;;6165447;23;20021;-66
2022/06/10 11:04:48;;;;;;;10.00;2.67;;;;;;;;;;6201845;23;20031;-66
2022/06/10 11:07:18;;;;;;;10.07;3.22;;;;;;;;;;6191743;23;20462;-66
2022/06/10 11:09:53;;;;;;;;;;;;;;;;;;6192339;23;20103;-66
2022/06/10 11:12:22;;;;;;;10.57;2.37;;;;;;;;;;6190249;23;19946;-68
2022/06/10 11:14:59;;;;;;;8.93;2.50;;;;;;;;;;6201459;23;20375;-66
2022/06/10 11:17:26;;;;;;;10.93;2.63;;;;;;;;;;6201056;23;20034;-66
2022/06/10 11:20:21;;;;;;;10.32;2.67;;;;;;;;;;6189556;22;20025;-66
2022/06/10 11:22:47;;;;;;;10.65;2.70;;;;;;;;;;6195461;23;20518;-66
2022/06/10 11:25:22;;;;;;;11.25;2.53;;;;;;;;;;6184478;23;20032;-67
2022/06/10 11:27:48;;;;;;;9.70;2.55;;;;;;;;;;6200863;23;20364;-67
2022/06/10 11:30:15;;;;;;;12.23;2.58;;;;;;;;;;6189659;22;20051;-66
2022/06/10 11:32:47;;;;;;;11.52;2.92;;;;;;;;;;6200196;23;20032;-67
2022/06/10 11:35:20;;;;;;;8.40;2.65;;;;;;;;;;6190462;23;20435;-66
2022/06/10 11:37:47;;;;;;;11.82;2.75;;;;;;;;;;6190773;23;20365;-66
2022/06/10 11:40:15;;;;;;;9.32;2.72;;;;;;;;;;6196596;23;20533;-67
2022/06/10 11:42:50;;;;;;;10.02;2.40;;;;;;;;;;6189123;23;20070;-66
2022/06/10 11:45:21;;;;;;;8.15;2.78;;;;;;;;;;6200436;23;20136;-67
2022/06/10 11:47:58;;;;;;;8.63;2.63;;;;;;;;;;6188554;23;20028;-67
2022/06/10 11:50:31;;;;;;;7.97;2.80;;;;;;;;;;6195412;23;20603;-67
2022/06/10 11:53:10;;;;;;;11.35;2.63;;;;;;;;;;6184832;23;20032;-66
2022/06/10 11:55:39;;;;;;;9.63;2.72;;;;;;;;;;6200214;23;20059;-67
2022/06/10 12:00:57;;;;;;;9.90;3.10;;;;;;;;;;6199933;23;20357;-67
2022/06/10 12:03:32;;;;;;;10.20;2.85;;;;;;;;;;6200079;23;20074;-68
2022/06/10 12:05:58;;;;;;;10.77;3.28;;;;;;;;;;6181280;22;20020;-67
2022/06/10 12:08:28;;;;;;;12.27;2.90;;;;;;;;;;6198453;23;20055;-67
2022/06/10 12:11:03;;;;;;;12.38;3.17;;;;;;;;;;6190589;22;20055;-67
2022/06/10 12:13:33;;;;;;;8.30;2.95;;;;;;;;;;6200556;23;20096;-67
2022/06/10 12:15:59;;;;;;;9.98;2.95;;;;;;;;;;6189805;23;20021;-67
2022/06/10 12:18:29;;;;;;;8.82;2.67;;;;;;;;;;6194001;23;20710;-67
2022/06/10 12:20:58;;;;;;;7.72;3.40;;;;;;;;;;6195516;23;20518;-67
2022/06/10 12:23:32;;;;;;;7.80;2.90;;;;;;;;;;6188602;22;20055;-67
2022/06/10 12:26:37;;;;;;;7.88;2.45;;;;;;;;;;6200587;23;20135;-68
2022/06/10 12:29:03;;;;;;;12.25;3.20;;;;;;;;;;6097458;23;20121;-67
2022/06/10 12:31:52;;;;;;;12.18;3.30;;;;;;;;;;6108371;23;20100;-67
2022/06/10 12:34:19;;;;;;;13.40;3.42;;;;;;;;;;6093317;23;20602;-68
2022/06/10 12:36:59;;;;;;;12.63;3.30;;;;;;;;;;6109527;23;20364;-67
2022/06/10 12:39:39;;;;;;;14.27;2.88;;;;;;;;;;6100189;23;20745;-67
2022/06/10 12:42:15;;;;;;;9.80;2.90;;;;;;;;;;6083659;23;20104;-68
2022/06/10 12:44:46;;;;;;;9.00;3.20;;;;;;;;;;6100314;23;20105;-68
2022/06/10 12:47:14;;;;;;;10.85;3.25;;;;;;;;;;6100945;23;20198;-67
2022/06/10 12:49:43;;;;;;;12.40;3.40;;;;;;;;;;6094501;23;20417;-67
2022/06/10 12:52:27;;;;;;;9.27;3.20;;;;;;;;;;6104057;23;20119;-67
2022/06/10 12:55:03;;;;;;;10.40;3.35;;;;;;;;;;6107343;23;20419;-68
2022/06/10 12:57:40;;;;;;;11.93;3.45;;;;;;;;;;6097101;23;20088;-67
2022/06/10 13:00:19;;;;;;;8.13;3.17;;;;;;;;;;6155245;23;20104;-66
2022/06/10 13:02:50;;;;;;;9.32;3.05;;;;;;;;;;6184271;23;20751;-66
2022/06/10 13:05:18;;;;;;;9.18;3.72;;;;;;;;;;6199254;23;20469;-67
2022/06/10 13:07:45;;;;;;;9.43;3.50;;;;;;;;;;6189266;23;20043;-67
2022/06/10 13:10:30;;;;;;;12.20;3.30;;;;;;;;;;6201094;23;20103;-68
2022/06/10 13:12:58;;;;;;;8.27;3.13;;;;;;;;;;6190012;23;20410;-67
2022/06/10 13:15:26;;;;;;;9.17;3.83;;;;;;;;;;6193394;23;20021;-67
2022/06/10 13:18:00;;;;;;;5.93;2.92;;;;;;;;;;6193566;23;20362;-67
2022/06/10 13:20:27;;;;;;;7.25;3.35;;;;;;;;;;6189875;22;20474;-67
2022/06/10 13:23:08;;;;;;;8.25;3.22;;;;;;;;;;6172863;23;20039;-67
2022/06/10 13:25:36;;;;;;;11.23;3.50;;;;;;;;;;6190212;23;20509;-67
2022/06/10 13:28:11;;;;;;;8.10;3.42;;;;;;;;;;6195355;23;20028;-67
2022/06/10 13:30:37;;;;;;;9.73;3.50;;;;;;;;;;6155784;23;20024;-66
2022/06/10 13:33:05;;;;;;;10.13;2.83;;;;;;;;;;6199589;23;20406;-66
2022/06/10 13:35:37;;;;;;;7.22;3.22;;;;;;;;;;6200887;23;20100;-67
2022/06/10 13:38:09;;;;;;;7.75;2.95;;;;;;;;;;6188441;23;20103;-66
2022/06/10 13:40:38;;;;;;;8.02;3.30;;;;;;;;;;6199452;23;20021;-67
2022/06/10 13:43:05;;;;;;;7.03;3.30;;;;;;;;;;6183407;22;20059;-67
2022/06/10 13:45:39;;;;;;;6.88;3.20;;;;;;;;;;6193967;23;20382;-67
2022/06/10 13:48:15;;;;;;;8.93;3.15;;;;;;;;;;6187243;23;20208;-67
2022/06/10 13:53:38;;;;;;;7.22;3.60;;;;;;;;;;6189585;23;20020;-67
2022/06/10 13:56:06;;;;;;;7.30;3.38;;;;;;;;;;6196190;23;20986;-67
2022/06/10 13:58:32;;;;;;;;;;;;;;;;;;6167129;23;20124;-67
2022/06/10 14:01:01;;;;;;;6.55;3.13;;;;;;;;;;6188905;23;20274;-67
2022/06/10 14:03:28;;;;;;;7.35;3.28;;;;;;;;;;6199271;23;20462;-68
2022/06/10 14:06:15;;;;;;;13.48;4.03;;;;;;;;;;6189056;23;20466;-67
2022/06/10 14:08:46;;;;;;;7.13;3.42;;;;;;;;;;6183620;23;20136;-68
2022/06/10 14:11:33;;;;;;;7.32;2.85;;;;;;;;;;6183127;23;20127;-68
2022/06/10 14:14:19;;;;;;;8.05;2.80;;;;;;;;;;6194543;23;20104;-67
2022/06/10 14:17:00;;;;;;;6.57;3.00;;;;;;;;;;6191170;23;20025;-67
2022/06/10 14:19:26;;;;;;;10.32;3.40;;;;;;;;;;6201361;23;20530;-66
2022/06/10 14:21:53;;;;;;;8.35;3.10;;;;;;;;;;6201594;23;20032;-67
2022/06/10 14:24:19;;;;;;;9.75;3.85;;;;;;;;;;6185273;23;20079;-67
2022/06/10 14:26:54;;;;;;;6.15;2.90;;;;;;;;;;6197563;23;20285;-67
2022/06/10 14:29:23;;;;;;;9.27;2.92;;;;;;;;;;6193442;23;20025;-66
2022/06/10 14:31:56;;;;;;;9.02;3.30;;;;;;;;;;6201355;23;20027;-67
2022/06/10 14:34:24;;;;;;;5.68;2.67;;;;;;;;;;6195084;23;20020;-67
2022/06/10 14:36:58;;;;;;;9.63;2.92;;;;;;;;;;6202852;23;20123;-67
2022/06/10 14:39:26;;;;;;;11.25;3.58;;;;;;;;;;6189264;22;20024;-67
2022/06/10 14:41:57;;;;;;;9.57;3.00;;;;;;;;;;6195932;23;20654;-67
2022/06/10 14:44:43;;;;;;;7.63;3.20;;;;;;;;;;6201364;23;20429;-67
2022/06/10 14:47:10;;;;;;;8.20;2.92;;;;;;;;;;6190557;23;20124;-67
2022/06/10 14:49:38;;;;;;;8.18;2.92;;;;;;;;;;6201096;23;20112;-67
2022/06/10 14:52:04;;;;;;;;;;;;;;;;;;6189733;23;20030;-67
2022/06/10 14:54:30;;;;;;;8.38;3.42;;;;;;;;;;6194717;23;19959;-67
2022/06/10 14:56:58;;;;;;;11.75;3.72;;;;;;;;;;6192238;22;20096;-67
2022/06/10 14:59:29;;;;;;;11.48;3.92;;;;;;;;;;6201094;23;20365;-67
2022/06/10 15:01:57;;;;;;;8.52;3.25;;;;;;;;;;6203166;23;20525;-68
2022/06/10 15:04:24;;;;;;;6.57;3.15;;;;;;;;;;6194084;22;20031;-67
2022/06/10 15:07:11;;;;;;;9.03;3.47;;;;;;;;;;6196141;23;20491;-67
2022/06/10 15:09:39;;;;;;;6.90;3.20;;;;;;;;;;6187623;23;20419;-67
2022/06/10 15:12:13;;;;;;;8.27;3.30;;;;;;;;;;6203125;23;20028;-67
2022/06/10 15:14:40;;;;;;;9.80;3.38;;;;;;;;;;6193083;23;20021;-67
2022/06/10 15:17:10;;;;;;;9.88;3.60;;;;;;;;;;6203399;23;20473;-67